createdAt,value
2018-06-25T00:01:27.317Z,5.07
2018-06-25T00:04:30.648Z,5.57
2018-06-25T00:07:34.248Z,5.60
2018-06-25T00:10:37.729Z,5.27
2018-06-25T00:13:55.565Z,5.80
2018-06-25T00:16:58.763Z,5.47
2018-06-25T00:20:02.112Z,5.47
2018-06-25T00:23:05.409Z,6.00
2018-06-25T00:26:08.735Z,5.80
2018-06-25T00:29:12.026Z,6.00
2018-06-25T00:32:16.247Z,6.00
2018-06-25T00:35:19.493Z,6.03
2018-06-25T00:38:23.894Z,6.13
2018-06-25T00:41:27.230Z,6.47
2018-06-25T00:44:30.598Z,6.50
2018-06-25T00:47:33.788Z,5.90
2018-06-25T00:50:37.106Z,6.53
2018-06-25T00:53:40.326Z,7.33
2018-06-25T00:56:43.698Z,6.03
2018-06-25T00:59:53.500Z,6.60
2018-06-25T01:02:56.629Z,6.43
2018-06-25T01:05:59.926Z,7.13
2018-06-25T01:09:05.255Z,7.33
2018-06-25T01:12:08.514Z,8.33
2018-06-25T01:15:11.695Z,9.30
2018-06-25T01:18:14.786Z,8.63
2018-06-25T01:21:18.032Z,9.07
2018-06-25T01:24:21.198Z,8.87
2018-06-25T01:27:24.605Z,8.87
2018-06-25T01:30:27.743Z,9.23
2018-06-25T01:33:30.978Z,8.67
2018-06-25T01:36:34.163Z,8.83
2018-06-25T01:39:37.372Z,9.27
2018-06-25T01:42:40.683Z,8.13
2018-06-25T01:45:43.828Z,8.03
2018-06-25T01:48:47.208Z,8.97
2018-06-25T01:51:50.458Z,7.93
2018-06-25T01:54:53.689Z,8.00
2018-06-25T01:57:56.921Z,7.80
2018-06-25T02:00:59.848Z,7.93
2018-06-25T02:04:02.917Z,7.27
2018-06-25T02:07:06.060Z,7.20
2018-06-25T02:10:09.503Z,6.77
2018-06-25T02:13:12.744Z,7.40
2018-06-25T02:16:16.020Z,6.53
2018-06-25T02:19:19.248Z,6.53
2018-06-25T02:22:22.401Z,6.63
2018-06-25T02:25:25.546Z,6.73
2018-06-25T02:28:28.715Z,6.00
2018-06-25T02:31:31.987Z,6.00
2018-06-25T02:34:35.383Z,5.23
2018-06-25T02:37:38.685Z,5.13
2018-06-25T02:40:42.063Z,5.10
2018-06-25T02:43:45.341Z,4.47
2018-06-25T02:46:48.399Z,5.03
2018-06-25T02:49:52.501Z,4.40
2018-06-25T02:52:55.625Z,5.33
2018-06-25T02:55:58.637Z,5.13
2018-06-25T02:59:01.995Z,5.60
2018-06-25T03:02:05.160Z,5.43
2018-06-25T03:05:09.409Z,6.03
2018-06-25T03:08:12.684Z,5.47
2018-06-25T03:11:16.011Z,6.03
2018-06-25T03:14:19.265Z,5.47
2018-06-25T03:17:22.614Z,5.97
2018-06-25T03:20:25.898Z,5.97
2018-06-25T03:23:29.055Z,5.37
2018-06-25T03:26:32.367Z,5.70
2018-06-25T03:29:35.575Z,5.53
2018-06-25T03:32:38.773Z,5.13
2018-06-25T03:35:41.806Z,5.23
2018-06-25T03:38:44.974Z,5.83
2018-06-25T03:41:48.054Z,5.30
2018-06-25T03:44:51.340Z,5.10
2018-06-25T03:47:54.882Z,5.83
2018-06-25T03:50:58.202Z,5.23
2018-06-25T03:54:01.577Z,5.03
2018-06-25T03:57:04.798Z,5.37
2018-06-25T04:00:08.203Z,5.07
2018-06-25T04:03:11.532Z,5.47
2018-06-25T04:06:14.794Z,5.17
2018-06-25T04:09:17.986Z,4.60
2018-06-25T04:12:21.116Z,4.50
2018-06-25T04:15:24.186Z,4.27
2018-06-25T04:18:27.339Z,4.53
2018-06-25T04:21:30.664Z,4.00
2018-06-25T04:24:33.764Z,4.47
2018-06-25T04:27:37.040Z,3.73
2018-06-25T04:30:40.239Z,4.20
2018-06-25T04:33:43.302Z,4.27
2018-06-25T04:36:46.398Z,3.53
2018-06-25T04:39:49.776Z,3.27
2018-06-25T04:42:53.287Z,2.60
2018-06-25T04:45:56.386Z,2.80
2018-06-25T04:49:03.159Z,2.93
2018-06-25T04:52:06.240Z,3.23
2018-06-25T04:55:09.283Z,2.87
2018-06-25T04:58:12.650Z,2.77
2018-06-25T05:01:16.061Z,2.03
2018-06-25T05:04:18.973Z,2.20
2018-06-25T05:07:22.106Z,1.90
2018-06-25T05:10:25.178Z,2.07
2018-06-25T05:13:28.251Z,1.70
2018-06-25T05:16:31.482Z,1.90
2018-06-25T05:19:34.908Z,1.60
2018-06-25T05:22:38.143Z,1.77
2018-06-25T05:25:41.294Z,1.07
2018-06-25T05:28:44.655Z,0.80
2018-06-25T05:31:47.889Z,1.00
2018-06-25T05:34:51.236Z,1.40
2018-06-25T05:37:54.248Z,1.00
2018-06-25T05:40:57.383Z,1.33
2018-06-25T05:44:00.663Z,1.00
2018-06-25T05:47:03.939Z,1.20
2018-06-25T05:50:07.243Z,0.70
2018-06-25T05:53:10.347Z,0.80
2018-06-25T05:56:13.735Z,0.77
2018-06-25T05:59:17.117Z,0.80
2018-06-25T06:02:20.394Z,0.70
2018-06-25T06:05:23.732Z,0.90
2018-06-25T06:08:26.862Z,0.80
2018-06-25T06:11:29.937Z,0.70
2018-06-25T06:14:33.276Z,0.57
2018-06-25T06:17:36.523Z,0.50
2018-06-25T06:20:40.272Z,0.50
2018-06-25T06:23:43.595Z,0.40
2018-06-25T06:26:46.939Z,0.40
2018-06-25T06:29:50.642Z,0.37
2018-06-25T06:32:53.833Z,0.40
2018-06-25T06:39:39.866Z,0.30
2018-06-25T06:42:43.299Z,0.30
2018-06-25T06:45:46.566Z,0.30
2018-06-25T06:48:49.887Z,0.23
2018-06-25T06:51:54.685Z,0.37
2018-06-25T06:54:58.699Z,0.30
2018-06-25T06:58:02.080Z,0.30
2018-06-25T07:01:05.605Z,0.47
2018-06-25T07:04:08.837Z,0.20
2018-06-25T07:07:12.084Z,0.40
2018-06-25T07:10:15.162Z,0.73
2018-06-25T07:13:18.452Z,0.60
2018-06-25T07:16:22.588Z,1.40
2018-06-25T07:19:25.761Z,1.23
2018-06-25T07:22:28.975Z,1.00
2018-06-25T07:25:32.073Z,1.47
2018-06-25T07:28:36.442Z,0.90
2018-06-25T07:31:39.698Z,0.80
2018-06-25T07:34:43.860Z,1.10
2018-06-25T07:37:48.813Z,1.03
2018-06-25T07:40:52.057Z,1.03
2018-06-25T07:43:55.202Z,1.43
2018-06-25T07:46:58.431Z,0.87
2018-06-25T07:50:02.764Z,1.10
2018-06-25T07:53:07.080Z,1.10
2018-06-25T07:56:10.396Z,0.80
2018-06-25T07:59:13.620Z,0.77
2018-06-25T08:02:17.996Z,3.63
2018-06-25T08:05:21.296Z,1.40
2018-06-25T08:08:24.971Z,1.00
2018-06-25T08:11:28.083Z,0.70
2018-06-25T08:14:31.227Z,0.70
2018-06-25T08:17:34.314Z,0.50
2018-06-25T08:20:37.716Z,0.40
2018-06-25T08:23:40.889Z,0.40
2018-06-25T08:26:44.143Z,0.50
2018-06-25T08:29:49.173Z,0.63
2018-06-25T08:32:52.986Z,0.60
2018-06-25T08:35:56.285Z,0.50
2018-06-25T08:39:00.392Z,0.57
2018-06-25T08:42:03.803Z,0.60
2018-06-25T08:45:07.212Z,0.60
2018-06-25T08:48:11.747Z,0.30
2018-06-25T08:51:15.017Z,0.30
2018-06-25T08:54:18.307Z,0.30
2018-06-25T08:57:21.555Z,0.20
2018-06-25T09:00:24.625Z,0.20
2018-06-25T09:03:27.800Z,0.20
2018-06-25T09:06:30.940Z,0.30
2018-06-25T09:09:34.174Z,0.27
2018-06-25T09:12:39.090Z,0.27
2018-06-25T09:15:42.521Z,0.30
2018-06-25T09:18:45.897Z,0.30
2018-06-25T09:21:50.105Z,0.30
2018-06-25T09:24:53.595Z,0.20
2018-06-25T09:28:01.778Z,0.30
2018-06-25T09:31:05.032Z,0.30
2018-06-25T09:34:13.844Z,0.27
2018-06-25T09:37:18.585Z,0.37
2018-06-25T09:40:22.412Z,0.20
2018-06-25T09:43:25.616Z,0.40
2018-06-25T09:46:29.335Z,0.37
2018-06-25T09:49:32.849Z,0.20
2018-06-25T09:52:36.411Z,0.30
2018-06-25T09:55:39.695Z,0.20
2018-06-25T09:58:43.213Z,0.30
2018-06-25T10:01:46.616Z,0.30
2018-06-25T10:04:50.133Z,0.20
2018-06-25T10:07:53.408Z,0.30
2018-06-25T10:10:56.691Z,0.30
2018-06-25T10:13:59.918Z,0.40
2018-06-25T10:17:03.180Z,0.40
2018-06-25T10:20:06.403Z,0.33
2018-06-25T10:23:09.524Z,0.40
2018-06-25T10:26:12.959Z,0.30
2018-06-25T10:29:16.452Z,0.40
2018-06-25T10:32:19.750Z,0.40
2018-06-25T10:35:23.007Z,0.40
2018-06-25T10:38:26.345Z,0.30
2018-06-25T10:41:29.622Z,0.37
2018-06-25T10:44:34.100Z,0.30
2018-06-25T10:47:37.388Z,0.30
2018-06-25T10:50:40.652Z,0.50
2018-06-25T10:53:44.087Z,0.40
2018-06-25T10:56:47.646Z,0.50
2018-06-25T10:59:50.872Z,0.40
2018-06-25T11:02:54.184Z,0.40
2018-06-25T11:18:37.242Z,0.30
2018-06-25T11:21:40.671Z,0.50
2018-06-25T11:24:44.120Z,0.40
2018-06-25T11:27:47.654Z,0.40
2018-06-25T11:30:51.084Z,0.30
2018-06-25T11:33:54.370Z,0.40
2018-06-25T11:36:57.658Z,0.40
2018-06-25T11:40:01.064Z,0.50
2018-06-25T11:43:04.474Z,0.50
2018-06-25T11:46:07.740Z,0.53
2018-06-25T11:49:11.035Z,0.87
2018-06-25T11:52:14.550Z,0.50
2018-06-25T11:55:18.138Z,0.60
2018-06-25T11:58:21.626Z,0.40
2018-06-25T12:01:25.056Z,0.37
2018-06-25T12:04:28.390Z,0.50
2018-06-25T12:07:31.696Z,0.40
2018-06-25T12:10:35.314Z,0.40
2018-06-25T12:13:38.674Z,0.50
2018-06-25T12:16:41.841Z,0.50
2018-06-25T12:19:45.149Z,0.57
2018-06-25T12:22:48.402Z,0.50
2018-06-25T12:28:54.590Z,0.60
2018-06-25T12:31:57.942Z,0.50
2018-06-25T12:35:01.310Z,0.47
2018-06-25T12:38:04.814Z,0.40
2018-06-25T12:41:09.155Z,0.47
2018-06-25T12:44:12.592Z,0.40
2018-06-25T12:47:16.446Z,0.47
2018-06-25T12:50:19.831Z,0.50
2018-06-25T12:53:22.961Z,0.30
2018-06-25T12:56:26.395Z,0.50
2018-06-25T12:59:30.486Z,0.70
2018-06-25T13:02:34.720Z,0.60
2018-06-25T13:05:38.336Z,0.37
2018-06-25T13:08:42.561Z,0.47
2018-06-25T13:11:47.709Z,0.40
2018-06-25T13:15:19.402Z,0.57
2018-06-25T13:18:22.830Z,0.60
2018-06-25T13:21:26.300Z,0.60
2018-06-25T13:24:30.027Z,0.60
2018-06-25T13:27:33.501Z,0.70
2018-06-25T13:30:39.136Z,0.40
2018-06-25T13:33:51.036Z,0.60
2018-06-25T13:36:55.183Z,0.40
2018-06-25T13:40:04.294Z,0.60
2018-06-25T13:43:07.372Z,0.80
2018-06-25T13:46:10.635Z,0.90
2018-06-25T13:49:13.981Z,0.80
2018-06-25T13:52:17.286Z,0.80
2018-06-25T13:55:20.593Z,0.70
2018-06-25T13:58:25.692Z,1.07
2018-06-25T14:01:30.037Z,1.23
2018-06-25T14:04:36.210Z,1.00
2018-06-25T14:07:42.017Z,0.90
2018-06-25T14:10:45.101Z,0.90
2018-06-25T14:13:50.918Z,1.20
2018-06-25T14:17:00.799Z,1.50
2018-06-25T14:20:04.501Z,0.80
2018-06-25T14:23:15.906Z,0.80
2018-06-25T14:26:19.176Z,0.97
2018-06-25T14:29:27.910Z,1.10
2018-06-25T14:33:03.813Z,0.83
2018-06-25T14:36:14.697Z,0.80
2018-06-25T14:39:19.897Z,0.97
2018-06-25T14:42:46.215Z,0.80
2018-06-25T14:45:56.175Z,1.20
2018-06-25T14:49:07.132Z,0.90
2018-06-25T14:52:30.573Z,0.97
2018-06-25T14:55:35.008Z,1.10
2018-06-25T14:58:40.788Z,1.20
2018-06-25T15:01:44.828Z,1.20
2018-06-25T15:04:55.058Z,1.20
2018-06-25T15:07:58.595Z,1.20
2018-06-25T15:11:14.100Z,1.03
2018-06-25T15:14:24.469Z,1.30
2018-06-25T15:17:42.497Z,1.37
2018-06-25T15:20:55.353Z,1.20
2018-06-25T15:24:04.527Z,1.60
2018-06-25T15:27:10.304Z,1.70
2018-06-25T15:30:40.133Z,1.87
2018-06-25T15:33:56.065Z,1.40
2018-06-25T15:37:00.564Z,1.70
2018-06-25T15:40:04.100Z,2.00
2018-06-25T15:43:09.445Z,1.83
2018-06-25T15:46:12.733Z,1.97
2018-06-25T15:49:16.109Z,2.00
2018-06-25T15:52:23.463Z,2.20
2018-06-25T15:55:26.760Z,1.67
2018-06-25T15:58:38.364Z,2.40
2018-06-25T16:01:44.828Z,1.97
2018-06-25T16:04:48.165Z,2.47
2018-06-25T16:07:51.635Z,2.20
2018-06-25T16:11:13.970Z,2.00
2018-06-25T16:14:30.865Z,2.43
2018-06-25T16:17:36.334Z,2.23
2018-06-25T16:20:40.722Z,2.43
2018-06-25T16:23:43.799Z,2.37
2018-06-25T16:26:47.743Z,2.50
2018-06-25T16:29:50.958Z,3.13
2018-06-25T16:33:02.851Z,2.70
2018-06-25T16:36:05.936Z,2.77
2018-06-25T16:39:10.820Z,2.67
2018-06-25T16:42:14.887Z,3.10
2018-06-25T16:45:17.874Z,2.50
2018-06-25T16:48:21.221Z,2.60
2018-06-25T16:51:24.465Z,2.93
2018-06-25T16:54:27.681Z,2.50
2018-06-25T16:57:31.769Z,3.30
2018-06-25T17:00:34.878Z,2.30
2018-06-25T17:03:37.937Z,1.97
2018-06-25T17:06:41.006Z,2.17
2018-06-25T17:09:44.132Z,1.80
2018-06-25T17:12:47.257Z,1.80
2018-06-25T17:15:50.184Z,1.60
2018-06-25T17:18:54.331Z,2.20
2018-06-25T17:21:57.322Z,1.67
2018-06-25T17:25:00.525Z,1.73
2018-06-25T17:28:03.801Z,2.07
2018-06-25T17:31:07.078Z,1.63
2018-06-25T17:34:10.401Z,1.63
2018-06-25T17:37:13.533Z,2.27
2018-06-25T17:40:16.632Z,3.17
2018-06-25T17:43:19.812Z,4.53
2018-06-25T17:46:22.964Z,8.30
2018-06-25T17:49:26.040Z,8.17
2018-06-25T17:52:29.230Z,26.97
2018-06-25T17:55:32.899Z,3.00
2018-06-25T17:58:35.957Z,1.87
2018-06-25T18:01:38.945Z,2.30
2018-06-25T18:04:42.437Z,1.80
2018-06-25T18:07:45.588Z,1.80
2018-06-25T18:10:49.910Z,1.83
2018-06-25T18:13:58.523Z,2.10
2018-06-25T18:17:01.729Z,2.50
2018-06-25T18:20:04.900Z,3.40
2018-06-25T18:23:11.490Z,3.10
2018-06-25T18:26:17.954Z,4.23
2018-06-25T18:29:21.011Z,3.73
2018-06-25T18:32:25.076Z,4.50
2018-06-25T18:35:29.337Z,5.10
2018-06-25T18:38:32.518Z,6.30
2018-06-25T18:41:35.589Z,6.37
2018-06-25T18:44:38.542Z,7.90
2018-06-25T18:47:41.622Z,8.20
2018-06-25T18:50:44.588Z,7.60
2018-06-25T18:53:47.884Z,7.80
2018-06-25T18:56:50.873Z,8.20
2018-06-25T18:59:53.931Z,8.27
2018-06-25T19:02:58.211Z,9.47
2018-06-25T19:06:01.182Z,8.70
2018-06-25T19:09:07.205Z,10.20
2018-06-25T19:12:10.286Z,8.53
2018-06-25T19:15:13.303Z,8.83
2018-06-25T19:18:16.358Z,8.70
2018-06-25T19:21:23.002Z,10.10
2018-06-25T19:24:26.063Z,8.60
2018-06-25T19:27:29.289Z,9.23
2018-06-25T19:30:32.901Z,10.07
2018-06-25T19:33:36.137Z,8.67
2018-06-25T19:36:39.176Z,8.70
2018-06-25T19:39:42.149Z,8.77
2018-06-25T19:42:45.466Z,9.00
2018-06-25T19:45:48.424Z,9.40
2018-06-25T19:48:51.453Z,9.40
2018-06-25T19:51:54.387Z,9.90
2018-06-25T19:54:57.361Z,8.90
2018-06-25T19:58:00.539Z,8.23
2018-06-25T20:01:03.501Z,9.33
2018-06-25T20:04:06.669Z,9.03
2018-06-25T20:07:09.668Z,8.73
2018-06-25T20:10:13.454Z,8.73
2018-06-25T20:13:16.461Z,8.87
2018-06-25T20:16:19.400Z,8.90
2018-06-25T20:19:22.449Z,8.77
2018-06-25T20:22:26.237Z,9.23
2018-06-25T20:25:29.250Z,8.50
2018-06-25T20:28:32.201Z,8.60
2018-06-25T20:31:35.420Z,9.30
2018-06-25T20:34:38.653Z,9.10
2018-06-25T20:37:41.698Z,9.57
2018-06-25T20:40:44.756Z,9.57
2018-06-25T20:43:47.760Z,9.50
2018-06-25T20:46:50.862Z,9.33
2018-06-25T20:49:53.894Z,9.83
2018-06-25T20:53:01.912Z,10.17
2018-06-25T20:56:05.068Z,9.40
2018-06-25T20:59:08.135Z,10.20
2018-06-25T21:02:11.354Z,10.50
2018-06-25T21:05:14.734Z,10.77
2018-06-25T21:08:17.763Z,10.27
2018-06-25T21:11:20.850Z,10.50
2018-06-25T21:14:23.891Z,10.13
2018-06-25T21:17:26.936Z,10.37
2018-06-25T21:20:29.930Z,10.03
2018-06-25T21:23:32.973Z,10.20
2018-06-25T21:26:36.088Z,11.17
2018-06-25T21:29:39.231Z,11.27
2018-06-25T21:32:42.503Z,11.87
2018-06-25T21:35:46.452Z,11.30
2018-06-25T21:38:49.867Z,11.03
2018-06-25T21:41:53.025Z,12.50
2018-06-25T21:44:56.151Z,11.33
2018-06-25T21:48:04.869Z,10.73
2018-06-25T21:51:08.080Z,11.70
2018-06-25T21:54:11.093Z,12.53
2018-06-25T22:00:36.250Z,12.70
2018-06-25T22:03:39.308Z,12.60
2018-06-25T22:06:42.363Z,12.40
2018-06-25T22:09:45.377Z,13.07
2018-06-25T22:12:48.477Z,13.10
2018-06-25T22:15:51.457Z,12.33
2018-06-25T22:18:54.437Z,12.27
2018-06-25T22:21:57.395Z,12.13
2018-06-25T22:25:00.391Z,12.17
2018-06-25T22:28:03.497Z,12.23
2018-06-25T22:31:06.453Z,12.70
2018-06-25T22:34:09.495Z,11.20
2018-06-25T22:37:12.574Z,11.47
2018-06-25T22:40:15.597Z,11.80
2018-06-25T22:43:18.665Z,12.40
2018-06-25T22:46:21.794Z,12.13
2018-06-25T22:49:25.187Z,11.37
2018-06-25T22:52:28.196Z,12.40
2018-06-25T22:55:31.946Z,12.30
2018-06-25T22:58:34.976Z,12.00
2018-06-25T23:01:37.906Z,11.83
2018-06-25T23:04:42.337Z,11.33
2018-06-25T23:07:45.354Z,11.83
2018-06-25T23:10:49.331Z,11.83
2018-06-25T23:13:54.910Z,11.03
2018-06-25T23:16:57.895Z,11.00
2018-06-25T23:20:00.824Z,11.03
2018-06-25T23:23:03.872Z,10.63
2018-06-25T23:26:07.982Z,11.63
2018-06-25T23:29:11.041Z,11.63
2018-06-25T23:32:14.537Z,11.03
2018-06-25T23:35:18.015Z,10.70
2018-06-25T23:38:20.964Z,10.97
2018-06-25T23:41:24.056Z,10.30
2018-06-25T23:44:29.068Z,11.43
2018-06-25T23:47:32.039Z,11.20
2018-06-25T23:50:35.317Z,11.33
2018-06-25T23:53:38.364Z,10.37
2018-06-25T23:56:41.360Z,11.33
2018-06-25T23:59:44.360Z,9.83
